YGTE

Details ICAO YGTE (GTE)
Name Groote Eylandt
Region Australia
Timezone Australia/Darwin (UTC+9.5)
Plans Departing 1
Arriving 1
Stats Elevation 52 ft / 16 m (AMSL)
Location -13.972411° 136.458781°
Runways 1
Magnetic Variation 4.009° E
Sunrise 2017-12-16 20:23:03 UTC / 2017-12-17 05:53:03 Local
Sunset 2017-12-17 09:19:54 UTC / 2017-12-17 18:49:54 Local
Advertisement - Login to hide

Runways

ID Width Length Bearing (true) Bearing (mag) Surface Threshold Offset Overrun Length
10 98 ft / 30 m 6,241 ft / 1,902 m 99.20° 95.19° Asphalt 0 ft / 0 m 0 ft / 0 m
28 98 ft / 30 m 6,241 ft / 1,902 m 279.20° 275.19° Asphalt 0 ft / 0 m 0 ft / 0 m

Map

Weather


0- 5 10 15 20 25 30 35+ Temperature / ° C

Clouds and Precipitation
Forecast for 2017-12-17 12:00 UTC. Updated an hour ago

Ground ~20,000 ft ~40,000 ft Winds

METAR

YGTE 170800Z AUTO 12005KT 9999 -SHRA SCT064 BKN120 27/23 Q1006

TAF

Not found

Frequencies

Unicom 125.10 MHz ACTIVATE LIGHTS ONLY MULT
Unicom 126.00 MHz GROOTE EYLANDT MULT
Unicom 122.20 MHz BRISBANE CENTRE MULT
Warning: Do not use this data for real-world aviation or navigation. No guarantee of current accuracy is given.